sensor_id;sensor_type;location;lat;lon;timestamp;temperature;humidity
46159;DHT22;31888;44.512;26.104;2023-03-01T00:01:25;4.50;99.90
46159;DHT22;31888;44.512;26.104;2023-03-01T00:03:50;4.40;99.90
46159;DHT22;31888;44.512;26.104;2023-03-01T00:06:15;4.30;99.90
46159;DHT22;31888;44.512;26.104;2023-03-01T00:08:41;4.30;99.90
46159;DHT22;31888;44.512;26.104;2023-03-01T00:11:08;4.40;99.90
46159;DHT22;31888;44.512;26.104;2023-03-01T00:13:33;4.40;99.90
46159;DHT22;31888;44.512;26.104;2023-03-01T00:15:57;4.40;99.90
46159;DHT22;31888;44.512;26.104;2023-03-01T00:18:22;4.40;99.90
46159;DHT22;31888;44.512;26.104;2023-03-01T00:20:49;4.40;99.90
46159;DHT22;31888;44.512;26.104;2023-03-01T00:23:14;4.30;99.90
46159;DHT22;31888;44.512;26.104;2023-03-01T00:25:42;4.30;99.90
46159;DHT22;31888;44.512;26.104;2023-03-01T00:28:07;4.30;99.90
46159;DHT22;31888;44.512;26.104;2023-03-01T00:30:33;4.30;99.90
46159;DHT22;31888;44.512;26.104;2023-03-01T00:32:57;4.40;99.90
46159;DHT22;31888;44.512;26.104;2023-03-01T00:35:22;4.30;99.90
46159;DHT22;31888;44.512;26.104;2023-03-01T00:37:46;4.40;99.90
46159;DHT22;31888;44.512;26.104;2023-03-01T00:40:11;4.40;99.90
46159;DHT22;31888;44.512;26.104;2023-03-01T00:42:37;4.40;99.90
46159;DHT22;31888;44.512;26.104;2023-03-01T00:45:02;4.40;99.90
46159;DHT22;31888;44.512;26.104;2023-03-01T00:47:29;4.40;99.90
46159;DHT22;31888;44.512;26.104;2023-03-01T00:49:54;4.40;99.90
46159;DHT22;31888;44.512;26.104;2023-03-01T00:52:18;4.50;99.90
46159;DHT22;31888;44.512;26.104;2023-03-01T00:54:43;4.50;99.90
46159;DHT22;31888;44.512;26.104;2023-03-01T00:57:08;4.50;99.90
46159;DHT22;31888;44.512;26.104;2023-03-01T00:59:34;4.60;99.90
46159;DHT22;31888;44.512;26.104;2023-03-01T01:01:59;4.60;99.90
46159;DHT22;31888;44.512;26.104;2023-03-01T01:04:23;4.50;99.90
46159;DHT22;31888;44.512;26.104;2023-03-01T01:06:48;4.50;99.90
46159;DHT22;31888;44.512;26.104;2023-03-01T01:09:13;4.50;99.90
46159;DHT22;31888;44.512;26.104;2023-03-01T01:11:41;4.60;99.90
46159;DHT22;31888;44.512;26.104;2023-03-01T01:14:06;4.60;99.90
46159;DHT22;31888;44.512;26.104;2023-03-01T01:16:31;4.50;99.90
46159;DHT22;31888;44.512;26.104;2023-03-01T01:18:57;4.60;99.90
46159;DHT22;31888;44.512;26.104;2023-03-01T01:21:24;4.60;99.90
46159;DHT22;31888;44.512;26.104;2023-03-01T01:23:50;4.50;99.90
46159;DHT22;31888;44.512;26.104;2023-03-01T01:26:16;4.40;99.90
46159;DHT22;31888;44.512;26.104;2023-03-01T01:28:42;4.40;99.90
46159;DHT22;31888;44.512;26.104;2023-03-01T01:31:06;4.50;99.90
46159;DHT22;31888;44.512;26.104;2023-03-01T01:33:32;4.50;99.90
46159;DHT22;31888;44.512;26.104;2023-03-01T01:35:57;4.60;99.90
46159;DHT22;31888;44.512;26.104;2023-03-01T01:38:22;4.60;99.90
46159;DHT22;31888;44.512;26.104;2023-03-01T01:40:47;4.50;99.90
46159;DHT22;31888;44.512;26.104;2023-03-01T01:43:18;4.60;99.90
46159;DHT22;31888;44.512;26.104;2023-03-01T01:45:43;4.50;99.90
46159;DHT22;31888;44.512;26.104;2023-03-01T01:48:14;4.60;99.90
46159;DHT22;31888;44.512;26.104;2023-03-01T01:50:40;4.60;99.90
46159;DHT22;31888;44.512;26.104;2023-03-01T01:53:11;4.70;99.90
46159;DHT22;31888;44.512;26.104;2023-03-01T01:55:37;4.70;99.90
46159;DHT22;31888;44.512;26.104;2023-03-01T01:58:06;4.70;99.90
46159;DHT22;31888;44.512;26.104;2023-03-01T02:00:32;4.60;99.90
46159;DHT22;31888;44.512;26.104;2023-03-01T02:03:00;4.60;99.90
46159;DHT22;31888;44.512;26.104;2023-03-01T02:05:32;4.60;99.90
46159;DHT22;31888;44.512;26.104;2023-03-01T02:07:59;4.60;99.90
46159;DHT22;31888;44.512;26.104;2023-03-01T02:10:24;4.60;99.90
46159;DHT22;31888;44.512;26.104;2023-03-01T02:12:50;4.70;99.90
46159;DHT22;31888;44.512;26.104;2023-03-01T02:15:37;4.60;99.90
46159;DHT22;31888;44.512;26.104;2023-03-01T02:18:03;4.50;99.90
46159;DHT22;31888;44.512;26.104;2023-03-01T02:20:34;4.50;99.90
46159;DHT22;31888;44.512;26.104;2023-03-01T02:23:01;4.40;99.90
46159;DHT22;31888;44.512;26.104;2023-03-01T02:25:36;4.40;99.90
46159;DHT22;31888;44.512;26.104;2023-03-01T02:28:09;4.40;99.90
46159;DHT22;31888;44.512;26.104;2023-03-01T02:30:36;4.40;99.90
46159;DHT22;31888;44.512;26.104;2023-03-01T02:33:21;4.40;99.90
46159;DHT22;31888;44.512;26.104;2023-03-01T02:35:44;4.40;99.90
46159;DHT22;31888;44.512;26.104;2023-03-01T02:38:09;4.40;99.90
46159;DHT22;31888;44.512;26.104;2023-03-01T02:40:35;4.40;99.90
46159;DHT22;31888;44.512;26.104;2023-03-01T02:43:00;4.40;99.90
46159;DHT22;31888;44.512;26.104;2023-03-01T02:45:25;4.40;99.90
46159;DHT22;31888;44.512;26.104;2023-03-01T02:47:53;4.40;99.90
46159;DHT22;31888;44.512;26.104;2023-03-01T02:50:41;4.30;99.90
46159;DHT22;31888;44.512;26.104;2023-03-01T02:53:12;4.30;99.90
46159;DHT22;31888;44.512;26.104;2023-03-01T02:55:37;4.20;99.90
46159;DHT22;31888;44.512;26.104;2023-03-01T02:58:02;4.20;99.90
46159;DHT22;31888;44.512;26.104;2023-03-01T03:00:32;4.40;99.90
46159;DHT22;31888;44.512;26.104;2023-03-01T03:03:00;4.40;99.90
46159;DHT22;31888;44.512;26.104;2023-03-01T03:05:27;4.40;99.90
46159;DHT22;31888;44.512;26.104;2023-03-01T03:07:53;4.40;99.90
46159;DHT22;31888;44.512;26.104;2023-03-01T03:10:21;4.40;99.90
46159;DHT22;31888;44.512;26.104;2023-03-01T03:12:49;4.40;99.90
46159;DHT22;31888;44.512;26.104;2023-03-01T03:15:15;4.40;99.90
46159;DHT22;31888;44.512;26.104;2023-03-01T03:17:41;4.40;99.90
46159;DHT22;31888;44.512;26.104;2023-03-01T03:20:12;4.40;99.90
46159;DHT22;31888;44.512;26.104;2023-03-01T03:22:42;4.40;99.90
46159;DHT22;31888;44.512;26.104;2023-03-01T03:25:07;4.30;99.90
46159;DHT22;31888;44.512;26.104;2023-03-01T03:27:34;4.30;99.90
46159;DHT22;31888;44.512;26.104;2023-03-01T03:29:59;4.30;99.90
46159;DHT22;31888;44.512;26.104;2023-03-01T03:32:24;4.30;99.90
46159;DHT22;31888;44.512;26.104;2023-03-01T03:34:49;4.30;99.90
46159;DHT22;31888;44.512;26.104;2023-03-01T03:37:15;4.40;99.90
46159;DHT22;31888;44.512;26.104;2023-03-01T03:39:53;4.40;99.90
46159;DHT22;31888;44.512;26.104;2023-03-01T03:42:19;4.30;99.90
46159;DHT22;31888;44.512;26.104;2023-03-01T03:44:43;4.30;99.90
46159;DHT22;31888;44.512;26.104;2023-03-01T03:47:07;4.20;99.90
46159;DHT22;31888;44.512;26.104;2023-03-01T03:49:33;4.20;99.90
46159;DHT22;31888;44.512;26.104;2023-03-01T03:51:58;4.20;99.90
46159;DHT22;31888;44.512;26.104;2023-03-01T03:54:24;4.10;99.90
46159;DHT22;31888;44.512;26.104;2023-03-01T03:56:48;4.10;99.90
46159;DHT22;31888;44.512;26.104;2023-03-01T03:59:13;4.20;99.90
46159;DHT22;31888;44.512;26.104;2023-03-01T04:01:37;4.20;99.90
46159;DHT22;31888;44.512;26.104;2023-03-01T04:04:02;4.20;99.90
46159;DHT22;31888;44.512;26.104;2023-03-01T04:06:27;4.20;99.90
46159;DHT22;31888;44.512;26.104;2023-03-01T04:08:52;4.20;99.90
46159;DHT22;31888;44.512;26.104;2023-03-01T04:11:24;4.30;99.90
46159;DHT22;31888;44.512;26.104;2023-03-01T04:13:53;4.40;99.90
46159;DHT22;31888;44.512;26.104;2023-03-01T04:16:19;4.40;99.90
46159;DHT22;31888;44.512;26.104;2023-03-01T04:18:43;4.30;99.90
46159;DHT22;31888;44.512;26.104;2023-03-01T04:21:08;4.20;99.90
46159;DHT22;31888;44.512;26.104;2023-03-01T04:23:33;4.20;99.90
46159;DHT22;31888;44.512;26.104;2023-03-01T04:25:59;4.20;99.90
46159;DHT22;31888;44.512;26.104;2023-03-01T04:28:26;4.20;99.90
46159;DHT22;31888;44.512;26.104;2023-03-01T04:30:51;4.20;99.90
46159;DHT22;31888;44.512;26.104;2023-03-01T04:33:16;4.20;99.90
46159;DHT22;31888;44.512;26.104;2023-03-01T04:35:41;4.10;99.90
46159;DHT22;31888;44.512;26.104;2023-03-01T04:38:06;4.20;99.90
46159;DHT22;31888;44.512;26.104;2023-03-01T04:40:31;4.20;99.90
46159;DHT22;31888;44.512;26.104;2023-03-01T04:42:56;4.20;99.90
46159;DHT22;31888;44.512;26.104;2023-03-01T04:45:22;4.20;99.90
46159;DHT22;31888;44.512;26.104;2023-03-01T04:47:47;4.20;99.90
46159;DHT22;31888;44.512;26.104;2023-03-01T04:50:13;4.20;99.90
46159;DHT22;31888;44.512;26.104;2023-03-01T04:52:38;4.10;99.90
46159;DHT22;31888;44.512;26.104;2023-03-01T04:55:03;4.10;99.90
46159;DHT22;31888;44.512;26.104;2023-03-01T04:57:28;4.10;99.90
46159;DHT22;31888;44.512;26.104;2023-03-01T04:59:52;4.00;99.90
46159;DHT22;31888;44.512;26.104;2023-03-01T05:02:18;4.00;99.90
46159;DHT22;31888;44.512;26.104;2023-03-01T05:04:43;4.00;99.90
46159;DHT22;31888;44.512;26.104;2023-03-01T05:07:07;4.10;99.90
46159;DHT22;31888;44.512;26.104;2023-03-01T05:09:32;4.20;99.90
46159;DHT22;31888;44.512;26.104;2023-03-01T05:11:56;4.30;99.90
46159;DHT22;31888;44.512;26.104;2023-03-01T05:14:21;4.30;99.90
46159;DHT22;31888;44.512;26.104;2023-03-01T05:16:46;4.30;99.90
46159;DHT22;31888;44.512;26.104;2023-03-01T05:19:13;4.30;99.90
46159;DHT22;31888;44.512;26.104;2023-03-01T05:21:38;4.30;99.90
46159;DHT22;31888;44.512;26.104;2023-03-01T05:24:23;4.30;99.90
46159;DHT22;31888;44.512;26.104;2023-03-01T05:26:48;4.30;99.90
46159;DHT22;31888;44.512;26.104;2023-03-01T05:29:15;4.40;99.90
46159;DHT22;31888;44.512;26.104;2023-03-01T05:31:39;4.50;99.90
46159;DHT22;31888;44.512;26.104;2023-03-01T05:34:04;4.50;99.90
46159;DHT22;31888;44.512;26.104;2023-03-01T05:36:30;4.50;99.90
46159;DHT22;31888;44.512;26.104;2023-03-01T05:38:55;4.50;99.90
46159;DHT22;31888;44.512;26.104;2023-03-01T05:41:20;4.60;99.90
46159;DHT22;31888;44.512;26.104;2023-03-01T05:43:44;4.50;99.90
46159;DHT22;31888;44.512;26.104;2023-03-01T05:46:08;4.50;99.90
46159;DHT22;31888;44.512;26.104;2023-03-01T05:48:35;4.40;99.90
46159;DHT22;31888;44.512;26.104;2023-03-01T05:51:01;4.40;99.90
46159;DHT22;31888;44.512;26.104;2023-03-01T05:53:27;4.40;99.90
46159;DHT22;31888;44.512;26.104;2023-03-01T05:55:51;4.40;99.90
46159;DHT22;31888;44.512;26.104;2023-03-01T05:58:18;4.40;99.90
46159;DHT22;31888;44.512;26.104;2023-03-01T06:00:46;4.40;99.90
46159;DHT22;31888;44.512;26.104;2023-03-01T06:03:13;4.50;99.90
46159;DHT22;31888;44.512;26.104;2023-03-01T06:05:38;4.50;99.90
46159;DHT22;31888;44.512;26.104;2023-03-01T06:08:04;4.40;99.90
46159;DHT22;31888;44.512;26.104;2023-03-01T06:10:30;4.40;99.90
46159;DHT22;31888;44.512;26.104;2023-03-01T06:12:54;4.40;99.90
46159;DHT22;31888;44.512;26.104;2023-03-01T06:15:19;4.40;99.90
46159;DHT22;31888;44.512;26.104;2023-03-01T06:17:45;4.30;99.90
46159;DHT22;31888;44.512;26.104;2023-03-01T06:20:13;4.20;99.90
46159;DHT22;31888;44.512;26.104;2023-03-01T06:22:38;4.20;99.90
46159;DHT22;31888;44.512;26.104;2023-03-01T06:25:05;4.20;99.90
46159;DHT22;31888;44.512;26.104;2023-03-01T06:27:31;4.20;99.90
46159;DHT22;31888;44.512;26.104;2023-03-01T06:29:55;4.30;99.90
46159;DHT22;31888;44.512;26.104;2023-03-01T06:32:20;4.30;99.90
46159;DHT22;31888;44.512;26.104;2023-03-01T06:34:44;4.30;99.90
46159;DHT22;31888;44.512;26.104;2023-03-01T06:37:09;4.40;99.90
46159;DHT22;31888;44.512;26.104;2023-03-01T06:39:34;4.40;99.90
46159;DHT22;31888;44.512;26.104;2023-03-01T06:41:58;4.40;99.90
46159;DHT22;31888;44.512;26.104;2023-03-01T06:44:24;4.30;99.90
46159;DHT22;31888;44.512;26.104;2023-03-01T06:46:49;4.30;99.90
46159;DHT22;31888;44.512;26.104;2023-03-01T06:49:14;4.30;99.90
46159;DHT22;31888;44.512;26.104;2023-03-01T06:51:39;4.30;99.90
46159;DHT22;31888;44.512;26.104;2023-03-01T06:54:04;4.30;99.90
46159;DHT22;31888;44.512;26.104;2023-03-01T06:56:29;4.30;99.90
46159;DHT22;31888;44.512;26.104;2023-03-01T06:58:54;4.40;99.90
46159;DHT22;31888;44.512;26.104;2023-03-01T07:01:20;4.40;99.90
46159;DHT22;31888;44.512;26.104;2023-03-01T07:03:45;4.50;99.90
46159;DHT22;31888;44.512;26.104;2023-03-01T07:06:10;4.50;99.90
46159;DHT22;31888;44.512;26.104;2023-03-01T07:08:35;4.50;99.90
46159;DHT22;31888;44.512;26.104;2023-03-01T07:11:00;4.40;99.90
46159;DHT22;31888;44.512;26.104;2023-03-01T07:13:26;4.40;99.90
46159;DHT22;31888;44.512;26.104;2023-03-01T07:15:51;4.40;99.90
46159;DHT22;31888;44.512;26.104;2023-03-01T07:18:18;4.30;99.90
46159;DHT22;31888;44.512;26.104;2023-03-01T07:20:42;4.40;99.90
46159;DHT22;31888;44.512;26.104;2023-03-01T07:23:07;4.30;99.90
46159;DHT22;31888;44.512;26.104;2023-03-01T07:25:32;4.30;99.90
46159;DHT22;31888;44.512;26.104;2023-03-01T07:27:56;4.30;99.90
46159;DHT22;31888;44.512;26.104;2023-03-01T07:30:21;4.30;99.90
46159;DHT22;31888;44.512;26.104;2023-03-01T07:32:49;4.40;99.90
46159;DHT22;31888;44.512;26.104;2023-03-01T07:35:18;4.50;99.90
46159;DHT22;31888;44.512;26.104;2023-03-01T07:37:42;4.50;99.90
46159;DHT22;31888;44.512;26.104;2023-03-01T07:40:08;4.50;99.90
46159;DHT22;31888;44.512;26.104;2023-03-01T07:42:36;4.60;99.90
46159;DHT22;31888;44.512;26.104;2023-03-01T07:45:00;4.50;99.90
46159;DHT22;31888;44.512;26.104;2023-03-01T07:47:28;4.50;99.90
46159;DHT22;31888;44.512;26.104;2023-03-01T07:49:52;4.50;99.90
46159;DHT22;31888;44.512;26.104;2023-03-01T07:52:22;4.50;99.90
46159;DHT22;31888;44.512;26.104;2023-03-01T07:54:46;4.50;99.90
46159;DHT22;31888;44.512;26.104;2023-03-01T07:57:11;4.40;99.90
46159;DHT22;31888;44.512;26.104;2023-03-01T07:59:36;4.40;99.90
46159;DHT22;31888;44.512;26.104;2023-03-01T08:02:00;4.50;99.90
46159;DHT22;31888;44.512;26.104;2023-03-01T08:04:25;4.50;99.90
46159;DHT22;31888;44.512;26.104;2023-03-01T08:06:50;4.60;99.90
46159;DHT22;31888;44.512;26.104;2023-03-01T08:09:16;4.60;99.90
46159;DHT22;31888;44.512;26.104;2023-03-01T08:11:40;4.60;99.90
46159;DHT22;31888;44.512;26.104;2023-03-01T08:14:06;4.60;99.90
46159;DHT22;31888;44.512;26.104;2023-03-01T08:16:30;4.70;99.90
46159;DHT22;31888;44.512;26.104;2023-03-01T08:18:57;4.70;99.90
46159;DHT22;31888;44.512;26.104;2023-03-01T08:21:24;4.70;99.90
46159;DHT22;31888;44.512;26.104;2023-03-01T08:23:49;4.70;99.90
46159;DHT22;31888;44.512;26.104;2023-03-01T08:26:16;4.60;99.90
46159;DHT22;31888;44.512;26.104;2023-03-01T08:28:42;4.60;99.90
46159;DHT22;31888;44.512;26.104;2023-03-01T08:31:14;4.60;99.90
46159;DHT22;31888;44.512;26.104;2023-03-01T08:33:39;4.60;99.90
46159;DHT22;31888;44.512;26.104;2023-03-01T08:36:05;4.70;99.90
46159;DHT22;31888;44.512;26.104;2023-03-01T08:38:30;4.70;99.90
46159;DHT22;31888;44.512;26.104;2023-03-01T08:40:55;4.70;99.90
46159;DHT22;31888;44.512;26.104;2023-03-01T08:43:21;4.60;99.90
46159;DHT22;31888;44.512;26.104;2023-03-01T08:45:48;4.70;99.90
46159;DHT22;31888;44.512;26.104;2023-03-01T08:48:13;4.60;99.90
46159;DHT22;31888;44.512;26.104;2023-03-01T08:50:37;4.60;99.90
46159;DHT22;31888;44.512;26.104;2023-03-01T08:53:04;4.60;99.90
46159;DHT22;31888;44.512;26.104;2023-03-01T08:55:28;4.60;99.90
46159;DHT22;31888;44.512;26.104;2023-03-01T08:57:53;4.70;99.90
46159;DHT22;31888;44.512;26.104;2023-03-01T09:00:20;4.80;99.90
46159;DHT22;31888;44.512;26.104;2023-03-01T09:02:44;4.80;99.90
46159;DHT22;31888;44.512;26.104;2023-03-01T09:05:09;4.80;99.90
46159;DHT22;31888;44.512;26.104;2023-03-01T09:07:33;4.80;99.90
46159;DHT22;31888;44.512;26.104;2023-03-01T09:09:58;4.80;99.90
46159;DHT22;31888;44.512;26.104;2023-03-01T09:12:23;4.90;99.90
46159;DHT22;31888;44.512;26.104;2023-03-01T09:14:48;4.90;99.90
46159;DHT22;31888;44.512;26.104;2023-03-01T09:17:14;4.90;99.90
46159;DHT22;31888;44.512;26.104;2023-03-01T09:19:39;4.90;99.90
46159;DHT22;31888;44.512;26.104;2023-03-01T09:22:04;4.80;99.90
46159;DHT22;31888;44.512;26.104;2023-03-01T09:24:28;4.80;99.90
46159;DHT22;31888;44.512;26.104;2023-03-01T09:26:54;4.70;99.90
46159;DHT22;31888;44.512;26.104;2023-03-01T09:29:19;4.90;99.90
46159;DHT22;31888;44.512;26.104;2023-03-01T09:31:43;4.90;99.90
46159;DHT22;31888;44.512;26.104;2023-03-01T09:34:10;5.00;99.90
46159;DHT22;31888;44.512;26.104;2023-03-01T09:36:38;5.10;99.90
46159;DHT22;31888;44.512;26.104;2023-03-01T09:39:03;5.00;99.90
46159;DHT22;31888;44.512;26.104;2023-03-01T09:41:42;5.00;99.90
46159;DHT22;31888;44.512;26.104;2023-03-01T09:44:12;5.00;99.90
46159;DHT22;31888;44.512;26.104;2023-03-01T09:46:42;5.10;99.90
46159;DHT22;31888;44.512;26.104;2023-03-01T09:49:14;5.10;99.90
46159;DHT22;31888;44.512;26.104;2023-03-01T09:51:43;5.10;99.90
46159;DHT22;31888;44.512;26.104;2023-03-01T09:54:12;5.20;99.90
46159;DHT22;31888;44.512;26.104;2023-03-01T09:56:41;5.30;99.90
46159;DHT22;31888;44.512;26.104;2023-03-01T09:59:17;5.20;99.90
46159;DHT22;31888;44.512;26.104;2023-03-01T10:01:51;5.10;99.90
46159;DHT22;31888;44.512;26.104;2023-03-01T10:04:40;5.10;99.90
46159;DHT22;31888;44.512;26.104;2023-03-01T10:07:22;5.20;99.90
46159;DHT22;31888;44.512;26.104;2023-03-01T10:09:50;5.30;99.90
46159;DHT22;31888;44.512;26.104;2023-03-01T10:12:18;5.40;99.90
46159;DHT22;31888;44.512;26.104;2023-03-01T10:14:49;5.40;99.90
46159;DHT22;31888;44.512;26.104;2023-03-01T10:17:24;5.50;99.90
46159;DHT22;31888;44.512;26.104;2023-03-01T10:19:54;5.60;99.90
46159;DHT22;31888;44.512;26.104;2023-03-01T10:22:20;5.60;99.90
46159;DHT22;31888;44.512;26.104;2023-03-01T10:24:45;5.80;99.90
46159;DHT22;31888;44.512;26.104;2023-03-01T10:27:15;5.80;99.90
46159;DHT22;31888;44.512;26.104;2023-03-01T10:29:48;5.90;99.90
46159;DHT22;31888;44.512;26.104;2023-03-01T10:32:14;6.00;99.90
46159;DHT22;31888;44.512;26.104;2023-03-01T10:34:40;6.00;99.90
46159;DHT22;31888;44.512;26.104;2023-03-01T10:37:12;6.00;99.90
46159;DHT22;31888;44.512;26.104;2023-03-01T10:39:36;5.90;99.90
46159;DHT22;31888;44.512;26.104;2023-03-01T10:42:03;6.00;99.90
46159;DHT22;31888;44.512;26.104;2023-03-01T10:44:39;6.00;99.90
46159;DHT22;31888;44.512;26.104;2023-03-01T10:47:04;6.10;99.90
46159;DHT22;31888;44.512;26.104;2023-03-01T10:49:29;6.00;99.90
46159;DHT22;31888;44.512;26.104;2023-03-01T10:51:54;6.00;99.90
46159;DHT22;31888;44.512;26.104;2023-03-01T10:54:22;6.00;99.90
46159;DHT22;31888;44.512;26.104;2023-03-01T10:56:48;6.00;99.90
46159;DHT22;31888;44.512;26.104;2023-03-01T10:59:27;6.00;99.90
46159;DHT22;31888;44.512;26.104;2023-03-01T11:02:15;6.00;99.90
46159;DHT22;31888;44.512;26.104;2023-03-01T11:05:00;6.10;99.90
46159;DHT22;31888;44.512;26.104;2023-03-01T11:07:26;6.10;99.90
46159;DHT22;31888;44.512;26.104;2023-03-01T11:09:52;6.10;99.90
46159;DHT22;31888;44.512;26.104;2023-03-01T11:12:20;6.20;99.90
46159;DHT22;31888;44.512;26.104;2023-03-01T11:14:47;6.20;99.90
46159;DHT22;31888;44.512;26.104;2023-03-01T11:17:17;6.30;99.90
46159;DHT22;31888;44.512;26.104;2023-03-01T11:19:42;6.30;99.90
46159;DHT22;31888;44.512;26.104;2023-03-01T11:22:23;6.40;99.90
46159;DHT22;31888;44.512;26.104;2023-03-01T11:24:50;6.40;99.90
46159;DHT22;31888;44.512;26.104;2023-03-01T11:27:36;6.40;99.90
46159;DHT22;31888;44.512;26.104;2023-03-01T11:30:05;6.40;99.90
46159;DHT22;31888;44.512;26.104;2023-03-01T11:32:35;6.20;99.90
46159;DHT22;31888;44.512;26.104;2023-03-01T11:35:08;6.10;99.90
46159;DHT22;31888;44.512;26.104;2023-03-01T11:37:37;6.10;99.90
46159;DHT22;31888;44.512;26.104;2023-03-01T11:40:12;6.20;99.90
46159;DHT22;31888;44.512;26.104;2023-03-01T11:43:00;6.20;99.90
46159;DHT22;31888;44.512;26.104;2023-03-01T11:45:34;6.40;99.90
46159;DHT22;31888;44.512;26.104;2023-03-01T11:48:13;6.50;99.90
46159;DHT22;31888;44.512;26.104;2023-03-01T11:50:48;6.60;99.90
46159;DHT22;31888;44.512;26.104;2023-03-01T11:53:28;6.70;99.90
46159;DHT22;31888;44.512;26.104;2023-03-01T11:56:04;6.70;99.90
46159;DHT22;31888;44.512;26.104;2023-03-01T12:01:42;7.00;99.90
46159;DHT22;31888;44.512;26.104;2023-03-01T12:07:34;7.20;99.90
46159;DHT22;31888;44.512;26.104;2023-03-01T12:10:19;7.00;99.90
46159;DHT22;31888;44.512;26.104;2023-03-01T12:12:57;6.90;99.90
46159;DHT22;31888;44.512;26.104;2023-03-01T12:15:37;6.90;99.90
46159;DHT22;31888;44.512;26.104;2023-03-01T12:18:17;6.90;99.90
46159;DHT22;31888;44.512;26.104;2023-03-01T12:20:50;6.90;99.90
46159;DHT22;31888;44.512;26.104;2023-03-01T12:23:39;6.90;99.90
46159;DHT22;31888;44.512;26.104;2023-03-01T12:26:15;6.90;99.90
46159;DHT22;31888;44.512;26.104;2023-03-01T12:28:52;7.00;99.90
46159;DHT22;31888;44.512;26.104;2023-03-01T12:31:49;7.20;99.90
46159;DHT22;31888;44.512;26.104;2023-03-01T12:34:39;7.40;99.90
46159;DHT22;31888;44.512;26.104;2023-03-01T12:37:17;7.40;99.90
46159;DHT22;31888;44.512;26.104;2023-03-01T12:39:55;7.30;99.90
46159;DHT22;31888;44.512;26.104;2023-03-01T12:42:30;7.20;99.90
46159;DHT22;31888;44.512;26.104;2023-03-01T12:45:27;7.20;99.90
46159;DHT22;31888;44.512;26.104;2023-03-01T12:48:23;7.20;99.90
46159;DHT22;31888;44.512;26.104;2023-03-01T12:50:52;7.30;99.90
46159;DHT22;31888;44.512;26.104;2023-03-01T12:53:23;7.30;99.90
46159;DHT22;31888;44.512;26.104;2023-03-01T12:55:49;7.30;99.90
46159;DHT22;31888;44.512;26.104;2023-03-01T12:58:24;7.30;99.90
46159;DHT22;31888;44.512;26.104;2023-03-01T13:01:16;7.30;99.90
46159;DHT22;31888;44.512;26.104;2023-03-01T13:06:40;7.40;99.90
46159;DHT22;31888;44.512;26.104;2023-03-01T13:09:18;7.40;99.90
46159;DHT22;31888;44.512;26.104;2023-03-01T13:11:44;7.50;99.90
46159;DHT22;31888;44.512;26.104;2023-03-01T13:14:36;7.50;99.90
46159;DHT22;31888;44.512;26.104;2023-03-01T13:17:01;7.50;99.90
46159;DHT22;31888;44.512;26.104;2023-03-01T13:19:28;7.50;99.90
46159;DHT22;31888;44.512;26.104;2023-03-01T13:21:55;7.50;99.90
46159;DHT22;31888;44.512;26.104;2023-03-01T13:24:25;7.60;99.90
46159;DHT22;31888;44.512;26.104;2023-03-01T13:27:09;7.70;99.90
46159;DHT22;31888;44.512;26.104;2023-03-01T13:29:44;7.60;99.90
46159;DHT22;31888;44.512;26.104;2023-03-01T13:32:19;7.60;99.90
46159;DHT22;31888;44.512;26.104;2023-03-01T13:34:57;7.60;99.90
46159;DHT22;31888;44.512;26.104;2023-03-01T13:37:27;7.60;99.90
46159;DHT22;31888;44.512;26.104;2023-03-01T13:39:53;7.60;99.90
46159;DHT22;31888;44.512;26.104;2023-03-01T13:42:42;7.70;99.90
46159;DHT22;31888;44.512;26.104;2023-03-01T13:45:25;7.70;99.90
46159;DHT22;31888;44.512;26.104;2023-03-01T13:47:58;7.70;99.90
46159;DHT22;31888;44.512;26.104;2023-03-01T13:50:28;7.70;99.90
46159;DHT22;31888;44.512;26.104;2023-03-01T13:52:56;7.70;99.90
46159;DHT22;31888;44.512;26.104;2023-03-01T13:55:24;7.70;99.90
46159;DHT22;31888;44.512;26.104;2023-03-01T13:57:53;7.60;99.90
46159;DHT22;31888;44.512;26.104;2023-03-01T14:00:34;7.60;99.90
46159;DHT22;31888;44.512;26.104;2023-03-01T14:03:05;7.40;99.90
46159;DHT22;31888;44.512;26.104;2023-03-01T14:05:31;7.30;99.90
46159;DHT22;31888;44.512;26.104;2023-03-01T14:07:55;7.30;99.90
46159;DHT22;31888;44.512;26.104;2023-03-01T14:10:20;7.20;99.90
46159;DHT22;31888;44.512;26.104;2023-03-01T14:12:52;7.20;99.90
46159;DHT22;31888;44.512;26.104;2023-03-01T14:15:29;7.20;99.90
46159;DHT22;31888;44.512;26.104;2023-03-01T14:18:00;7.20;99.90
46159;DHT22;31888;44.512;26.104;2023-03-01T14:20:32;7.10;99.90
46159;DHT22;31888;44.512;26.104;2023-03-01T14:23:01;7.10;99.90
46159;DHT22;31888;44.512;26.104;2023-03-01T14:25:29;7.20;99.90
46159;DHT22;31888;44.512;26.104;2023-03-01T14:27:58;7.20;99.90
46159;DHT22;31888;44.512;26.104;2023-03-01T14:30:27;7.10;99.90
46159;DHT22;31888;44.512;26.104;2023-03-01T14:32:56;7.20;99.90
46159;DHT22;31888;44.512;26.104;2023-03-01T14:35:22;7.30;99.90
46159;DHT22;31888;44.512;26.104;2023-03-01T14:37:48;7.30;99.90
46159;DHT22;31888;44.512;26.104;2023-03-01T14:40:21;7.30;99.90
46159;DHT22;31888;44.512;26.104;2023-03-01T14:42:47;7.40;99.90
46159;DHT22;31888;44.512;26.104;2023-03-01T14:45:12;7.30;99.90
46159;DHT22;31888;44.512;26.104;2023-03-01T14:47:38;7.30;99.90
46159;DHT22;31888;44.512;26.104;2023-03-01T14:50:09;7.30;99.90
46159;DHT22;31888;44.512;26.104;2023-03-01T14:52:36;7.20;99.90
46159;DHT22;31888;44.512;26.104;2023-03-01T14:55:05;7.10;99.90
46159;DHT22;31888;44.512;26.104;2023-03-01T14:57:31;7.10;99.90
46159;DHT22;31888;44.512;26.104;2023-03-01T14:59:59;7.00;99.90
46159;DHT22;31888;44.512;26.104;2023-03-01T15:02:28;7.20;99.90
46159;DHT22;31888;44.512;26.104;2023-03-01T15:04:56;7.10;99.90
46159;DHT22;31888;44.512;26.104;2023-03-01T15:07:28;7.00;99.90
46159;DHT22;31888;44.512;26.104;2023-03-01T15:09:55;6.90;99.90
46159;DHT22;31888;44.512;26.104;2023-03-01T15:12:42;6.80;99.90
46159;DHT22;31888;44.512;26.104;2023-03-01T15:15:35;6.90;99.90
46159;DHT22;31888;44.512;26.104;2023-03-01T15:18:01;6.80;99.90
46159;DHT22;31888;44.512;26.104;2023-03-01T15:20:28;6.70;99.90
46159;DHT22;31888;44.512;26.104;2023-03-01T15:22:56;6.60;99.90
46159;DHT22;31888;44.512;26.104;2023-03-01T15:25:23;6.60;99.90
46159;DHT22;31888;44.512;26.104;2023-03-01T15:27:51;6.50;99.90
46159;DHT22;31888;44.512;26.104;2023-03-01T15:30:18;6.50;99.90
46159;DHT22;31888;44.512;26.104;2023-03-01T15:32:45;6.50;99.90
46159;DHT22;31888;44.512;26.104;2023-03-01T15:35:40;6.50;99.90
46159;DHT22;31888;44.512;26.104;2023-03-01T15:38:25;6.50;99.90
46159;DHT22;31888;44.512;26.104;2023-03-01T15:40:50;6.50;99.90
46159;DHT22;31888;44.512;26.104;2023-03-01T15:43:42;6.50;99.90
46159;DHT22;31888;44.512;26.104;2023-03-01T15:46:20;6.50;99.90
46159;DHT22;31888;44.512;26.104;2023-03-01T15:48:47;6.50;99.90